MSR800A LFPG-HECA
Flight info
| Callsign | MSR800A |
|---|---|
| Flight time | 3h 49m |
| Altitude | 37000 |
| Route | BUBLI DCT LUVAL DCT SHARA DCT DEVDI DCT RIPUS DCT RESIA DCT IXONA DCT SAL DCT UVODI DCT AMUGO/N0473F390 DCT VAKSU DCT KOFER DCT PINDO DCT PIKOS DCT KEA UN132 KUPIS DCT LAPSO UN132 KUMBI L612 BLT |
| Aircraft | B77W/H-SDE1E2E3FGHIJ2J3J4J5M1RWXY/LB1D1 |
Departure
| Time | 2026-05-07 15:13 |
|---|---|
| Airport | Charles de Gaulle International Airport (LFPG) |
Arrival
| Time | 2026-05-07 19:02 |
|---|---|
| Airport | Cairo International Airport (HECA) |
| Time | Latitude | Longitude | Altitude | Speed | Heading |
|---|---|---|---|---|---|
| 2026-05-07 14:37 | 49.01506 | 2.53748 | 359 ft | 0 kts | 155° |
| 2026-05-07 14:58 | 49.01511 | 2.53744 | 359 ft | 4 kts | 153° |
| 2026-05-07 14:58 | 49.01532 | 2.53723 | 368 ft | 4 kts | 137° |
| 2026-05-07 14:58 | 49.01546 | 2.53696 | 368 ft | 3 kts | 113° |
| 2026-05-07 14:59 | 49.01551 | 2.53664 | 365 ft | 3 kts | 79° |
| 2026-05-07 14:59 | 49.01543 | 2.53636 | 368 ft | 3 kts | 43° |
| 2026-05-07 14:59 | 49.01530 | 2.53620 | 368 ft | 2 kts | 25° |
| 2026-05-07 14:59 | 49.01519 | 2.53613 | 366 ft | 2 kts | 13° |
| 2026-05-07 15:00 | 49.01509 | 2.53610 | 368 ft | 0 kts | 3° |
| 2026-05-07 15:03 | 49.01525 | 2.53610 | 368 ft | 7 kts | 357° |
| 2026-05-07 15:03 | 49.01580 | 2.53603 | 359 ft | 8 kts | 355° |
| 2026-05-07 15:04 | 49.01636 | 2.53596 | 365 ft | 8 kts | 355° |
| 2026-05-07 15:04 | 49.01691 | 2.53590 | 364 ft | 8 kts | 355° |
| 2026-05-07 15:04 | 49.01745 | 2.53568 | 367 ft | 8 kts | 327° |
| 2026-05-07 15:04 | 49.01769 | 2.53490 | 359 ft | 9 kts | 277° |
| 2026-05-07 15:05 | 49.01768 | 2.53399 | 359 ft | 9 kts | 266° |
| 2026-05-07 15:05 | 49.01764 | 2.53304 | 359 ft | 9 kts | 266° |
| 2026-05-07 15:05 | 49.01760 | 2.53210 | 359 ft | 9 kts | 266° |
| 2026-05-07 15:05 | 49.01756 | 2.53113 | 365 ft | 9 kts | 266° |
| 2026-05-07 15:06 | 49.01751 | 2.53017 | 361 ft | 9 kts | 265° |
| 2026-05-07 15:06 | 49.01745 | 2.52921 | 365 ft | 9 kts | 265° |
| 2026-05-07 15:06 | 49.01740 | 2.52822 | 364 ft | 9 kts | 265° |
| 2026-05-07 15:06 | 49.01734 | 2.52723 | 360 ft | 9 kts | 264° |
| 2026-05-07 15:07 | 49.01728 | 2.52623 | 366 ft | 10 kts | 265° |
| 2026-05-07 15:07 | 49.01723 | 2.52518 | 361 ft | 11 kts | 265° |
| 2026-05-07 15:07 | 49.01714 | 2.52368 | 367 ft | 16 kts | 265° |
| 2026-05-07 15:07 | 49.01705 | 2.52196 | 363 ft | 16 kts | 265° |
| 2026-05-07 15:08 | 49.01697 | 2.52023 | 359 ft | 16 kts | 265° |
| 2026-05-07 15:08 | 49.01688 | 2.51851 | 365 ft | 16 kts | 265° |
| 2026-05-07 15:08 | 49.01678 | 2.51676 | 360 ft | 18 kts | 264° |
| 2026-05-07 15:08 | 49.01669 | 2.51502 | 358 ft | 16 kts | 265° |
| 2026-05-07 15:09 | 49.01662 | 2.51364 | 355 ft | 11 kts | 270° |
| 2026-05-07 15:09 | 49.01706 | 2.51282 | 365 ft | 11 kts | 341° |
| 2026-05-07 15:09 | 49.01782 | 2.51268 | 360 ft | 11 kts | 355° |
| 2026-05-07 15:09 | 49.01857 | 2.51258 | 367 ft | 11 kts | 355° |
| 2026-05-07 15:10 | 49.01934 | 2.51253 | 361 ft | 9 kts | 5° |
| 2026-05-07 15:10 | 49.01936 | 2.51253 | 361 ft | 0 kts | 6° |
| 2026-05-07 15:11 | 49.01937 | 2.51253 | 361 ft | 1 kts | 6° |
| 2026-05-07 15:11 | 49.01987 | 2.51283 | 366 ft | 14 kts | 34° |
| 2026-05-07 15:11 | 49.02060 | 2.51414 | 367 ft | 17 kts | 64° |
| 2026-05-07 15:12 | 49.02075 | 2.51514 | 365 ft | 0 kts | 84° |
| 2026-05-07 15:12 | 49.02075 | 2.51525 | 366 ft | 9 kts | 84° |
| 2026-05-07 15:12 | 49.02100 | 2.51964 | 363 ft | 82 kts | 85° |
| 2026-05-07 15:12 | 49.02168 | 2.53221 | 367 ft | 155 kts | 85° |
| 2026-05-07 15:13 | 49.02244 | 2.54435 | 394 ft | 188 kts | 84° |
| 2026-05-07 15:13 | 49.02391 | 2.56448 | 1055 ft | 193 kts | 82° |
| 2026-05-07 15:13 | 49.02539 | 2.58506 | 1886 ft | 194 kts | 85° |
| 2026-05-07 15:13 | 49.02626 | 2.60559 | 2658 ft | 199 kts | 86° |
| 2026-05-07 15:14 | 49.02752 | 2.63618 | 3073 ft | 238 kts | 86° |
| 2026-05-07 15:14 | 49.02863 | 2.66274 | 3226 ft | 259 kts | 85° |
| 2026-05-07 15:14 | 49.02999 | 2.69025 | 3653 ft | 261 kts | 85° |
| 2026-05-07 15:14 | 49.03097 | 2.70886 | 4144 ft | 262 kts | 85° |
| 2026-05-07 15:15 | 49.03239 | 2.73669 | 4497 ft | 265 kts | 86° |
| 2026-05-07 15:15 | 49.03376 | 2.76455 | 4467 ft | 268 kts | 86° |
| 2026-05-07 15:15 | 49.03510 | 2.79270 | 4473 ft | 266 kts | 86° |
| 2026-05-07 15:15 | 49.03648 | 2.82086 | 4670 ft | 267 kts | 86° |
| 2026-05-07 15:16 | 49.03783 | 2.84915 | 5585 ft | 268 kts | 86° |
| 2026-05-07 15:16 | 49.03920 | 2.87760 | 6571 ft | 270 kts | 87° |
| 2026-05-07 15:16 | 49.04056 | 2.90639 | 7401 ft | 276 kts | 87° |
| 2026-05-07 15:16 | 49.04175 | 2.93574 | 8203 ft | 278 kts | 92° |
| 2026-05-07 15:17 | 49.03699 | 2.96427 | 8842 ft | 282 kts | 119° |
| 2026-05-07 15:17 | 49.02704 | 2.99045 | 9579 ft | 288 kts | 121° |
| 2026-05-07 15:17 | 49.01675 | 3.01687 | 10368 ft | 294 kts | 122° |
| 2026-05-07 15:17 | 49.00611 | 3.04414 | 10763 ft | 316 kts | 121° |
| 2026-05-07 15:18 | 48.99443 | 3.07423 | 10983 ft | 344 kts | 121° |
| 2026-05-07 15:18 | 48.98181 | 3.10685 | 11259 ft | 369 kts | 121° |
| 2026-05-07 15:18 | 48.96858 | 3.14116 | 11986 ft | 381 kts | 121° |
| 2026-05-07 15:18 | 48.95504 | 3.17640 | 12923 ft | 389 kts | 121° |
| 2026-05-07 15:19 | 48.94132 | 3.21214 | 13942 ft | 395 kts | 121° |
| 2026-05-07 15:19 | 48.92738 | 3.24848 | 14884 ft | 400 kts | 121° |
| 2026-05-07 15:19 | 48.91326 | 3.28518 | 15813 ft | 405 kts | 121° |
| 2026-05-07 15:19 | 48.89892 | 3.32245 | 16728 ft | 411 kts | 121° |
| 2026-05-07 15:20 | 48.87961 | 3.37252 | 17915 ft | 419 kts | 121° |
| 2026-05-07 15:20 | 48.86976 | 3.39804 | 18487 ft | 423 kts | 122° |
| 2026-05-07 15:20 | 48.85481 | 3.43675 | 19274 ft | 428 kts | 122° |
| 2026-05-07 15:20 | 48.83968 | 3.47585 | 19981 ft | 432 kts | 122° |
| 2026-05-07 15:21 | 48.82441 | 3.51519 | 20514 ft | 434 kts | 122° |
| 2026-05-07 15:21 | 48.81115 | 3.55644 | 21102 ft | 442 kts | 108° |
| 2026-05-07 15:21 | 48.80627 | 3.60194 | 21738 ft | 445 kts | 95° |
| 2026-05-07 15:21 | 48.80404 | 3.64911 | 22411 ft | 451 kts | 95° |
| 2026-05-07 15:22 | 48.80160 | 3.69668 | 23183 ft | 455 kts | 95° |
| 2026-05-07 15:22 | 48.79888 | 3.74473 | 23889 ft | 459 kts | 96° |
| 2026-05-07 15:22 | 48.79589 | 3.79319 | 24510 ft | 463 kts | 96° |
| 2026-05-07 15:22 | 48.79274 | 3.84186 | 25101 ft | 467 kts | 96° |
| 2026-05-07 15:23 | 48.78948 | 3.89104 | 25675 ft | 471 kts | 96° |
| 2026-05-07 15:23 | 48.78615 | 3.94064 | 26239 ft | 475 kts | 96° |
| 2026-05-07 15:23 | 48.78280 | 3.99057 | 26789 ft | 479 kts | 96° |
| 2026-05-07 15:23 | 48.77945 | 4.04041 | 27334 ft | 482 kts | 96° |
| 2026-05-07 15:24 | 48.77601 | 4.09126 | 27863 ft | 486 kts | 96° |
| 2026-05-07 15:24 | 48.77069 | 4.14171 | 28260 ft | 489 kts | 107° |
| 2026-05-07 15:24 | 48.75669 | 4.18873 | 28610 ft | 491 kts | 125° |
| 2026-05-07 15:24 | 48.73647 | 4.23017 | 29001 ft | 491 kts | 128° |
| 2026-05-07 15:25 | 48.71591 | 4.27170 | 29412 ft | 495 kts | 128° |
| 2026-05-07 15:25 | 48.69537 | 4.31390 | 29842 ft | 498 kts | 127° |
| 2026-05-07 15:25 | 48.67509 | 4.35624 | 30333 ft | 497 kts | 127° |
| 2026-05-07 15:25 | 48.65526 | 4.39808 | 30854 ft | 496 kts | 127° |
| 2026-05-07 15:26 | 48.63520 | 4.44060 | 31343 ft | 495 kts | 127° |
| 2026-05-07 15:26 | 48.61522 | 4.48298 | 31791 ft | 495 kts | 127° |
| 2026-05-07 15:26 | 48.59521 | 4.52536 | 32221 ft | 496 kts | 127° |
| 2026-05-07 15:26 | 48.57514 | 4.56777 | 32649 ft | 496 kts | 127° |
| 2026-05-07 15:27 | 48.55506 | 4.61009 | 33087 ft | 496 kts | 127° |
| 2026-05-07 15:27 | 48.53498 | 4.65233 | 33506 ft | 496 kts | 127° |
| 2026-05-07 15:27 | 48.51485 | 4.69459 | 33917 ft | 496 kts | 127° |
| 2026-05-07 15:27 | 48.49499 | 4.73620 | 34281 ft | 496 kts | 128° |
| 2026-05-07 15:28 | 48.47485 | 4.77834 | 34630 ft | 495 kts | 128° |
| 2026-05-07 15:28 | 48.45470 | 4.82045 | 34973 ft | 495 kts | 128° |
| 2026-05-07 15:28 | 48.43453 | 4.86253 | 35317 ft | 495 kts | 128° |
| 2026-05-07 15:28 | 48.41440 | 4.90448 | 35653 ft | 495 kts | 128° |
| 2026-05-07 15:29 | 48.39425 | 4.94639 | 35967 ft | 495 kts | 128° |
| 2026-05-07 15:29 | 48.37406 | 4.98834 | 36280 ft | 495 kts | 128° |
| 2026-05-07 15:29 | 48.35389 | 5.03019 | 36597 ft | 494 kts | 128° |
| 2026-05-07 15:29 | 48.33372 | 5.07195 | 36920 ft | 494 kts | 128° |
| 2026-05-07 15:30 | 48.29748 | 5.15969 | 37064 ft | 503 kts | 118° |
| 2026-05-07 15:30 | 48.27202 | 5.25716 | 37058 ft | 500 kts | 108° |
| 2026-05-07 15:31 | 48.25243 | 5.35691 | 37049 ft | 498 kts | 108° |
| 2026-05-07 15:31 | 48.23289 | 5.45641 | 37050 ft | 497 kts | 108° |
| 2026-05-07 15:32 | 48.21305 | 5.55498 | 37050 ft | 497 kts | 108° |
| 2026-05-07 15:32 | 48.19279 | 5.65414 | 37046 ft | 498 kts | 108° |
| 2026-05-07 15:33 | 48.17237 | 5.75349 | 37049 ft | 499 kts | 108° |
| 2026-05-07 15:33 | 48.15199 | 5.85227 | 37049 ft | 500 kts | 109° |
| 2026-05-07 15:34 | 48.13139 | 5.95165 | 37047 ft | 501 kts | 109° |
| 2026-05-07 15:34 | 48.11064 | 6.05126 | 37043 ft | 501 kts | 109° |
| 2026-05-07 15:35 | 48.08981 | 6.15082 | 37043 ft | 501 kts | 109° |
| 2026-05-07 15:35 | 48.06892 | 6.25011 | 37046 ft | 502 kts | 109° |
| 2026-05-07 15:36 | 48.04804 | 6.34892 | 37044 ft | 502 kts | 109° |
| 2026-05-07 15:36 | 48.02692 | 6.44837 | 37045 ft | 502 kts | 109° |
| 2026-05-07 15:37 | 48.00576 | 6.54755 | 37043 ft | 502 kts | 109° |
| 2026-05-07 15:37 | 47.98453 | 6.64664 | 37042 ft | 502 kts | 109° |
| 2026-05-07 15:38 | 47.96054 | 6.74440 | 37026 ft | 501 kts | 114° |
| 2026-05-07 15:38 | 47.93409 | 6.84065 | 37026 ft | 501 kts | 114° |
| 2026-05-07 15:39 | 47.90780 | 6.93605 | 37022 ft | 501 kts | 114° |
| 2026-05-07 15:39 | 47.88145 | 7.03235 | 37034 ft | 502 kts | 114° |
| 2026-05-07 15:40 | 47.85508 | 7.12871 | 37028 ft | 502 kts | 114° |
| 2026-05-07 15:40 | 47.82878 | 7.22437 | 37023 ft | 503 kts | 114° |
| 2026-05-07 15:41 | 47.80222 | 7.32057 | 37019 ft | 503 kts | 114° |
| 2026-05-07 15:41 | 47.77557 | 7.41673 | 37017 ft | 503 kts | 114° |
| 2026-05-07 15:42 | 47.74851 | 7.51267 | 37021 ft | 503 kts | 117° |
| 2026-05-07 15:42 | 47.71380 | 7.60150 | 37015 ft | 499 kts | 128° |
| 2026-05-07 15:43 | 47.67220 | 7.68416 | 37017 ft | 500 kts | 129° |
| 2026-05-07 15:43 | 47.63044 | 7.76664 | 37019 ft | 500 kts | 129° |
| 2026-05-07 15:44 | 47.58891 | 7.84944 | 37019 ft | 501 kts | 129° |
| 2026-05-07 15:44 | 47.54753 | 7.93216 | 37015 ft | 501 kts | 129° |
| 2026-05-07 15:45 | 47.50781 | 8.01135 | 37008 ft | 501 kts | 129° |
| 2026-05-07 15:45 | 47.48522 | 8.05626 | 37006 ft | 501 kts | 129° |
| 2026-05-07 15:46 | 47.43935 | 8.14721 | 36996 ft | 501 kts | 129° |
| 2026-05-07 15:47 | 47.39770 | 8.22951 | 37016 ft | 502 kts | 129° |
| 2026-05-07 15:47 | 47.35570 | 8.31228 | 37012 ft | 503 kts | 129° |
| 2026-05-07 15:48 | 47.31397 | 8.39427 | 37024 ft | 503 kts | 129° |
| 2026-05-07 15:48 | 47.27183 | 8.47686 | 37022 ft | 504 kts | 130° |
| 2026-05-07 15:49 | 47.22993 | 8.55981 | 37016 ft | 505 kts | 129° |
| 2026-05-07 15:49 | 47.18867 | 8.64355 | 37017 ft | 505 kts | 129° |
| 2026-05-07 15:50 | 47.14748 | 8.72708 | 37020 ft | 505 kts | 129° |
| 2026-05-07 15:50 | 47.10640 | 8.80982 | 37020 ft | 504 kts | 129° |
| 2026-05-07 15:51 | 47.06499 | 8.89279 | 37021 ft | 505 kts | 129° |
| 2026-05-07 15:51 | 47.02337 | 8.97587 | 37011 ft | 506 kts | 129° |
| 2026-05-07 15:52 | 46.98167 | 9.05892 | 36996 ft | 505 kts | 129° |
| 2026-05-07 15:52 | 46.94027 | 9.14112 | 37003 ft | 505 kts | 129° |
| 2026-05-07 15:53 | 46.89851 | 9.22380 | 37014 ft | 506 kts | 129° |
| 2026-05-07 15:53 | 46.85667 | 9.30639 | 36997 ft | 506 kts | 130° |
| 2026-05-07 15:54 | 46.81463 | 9.38909 | 36993 ft | 507 kts | 130° |
| 2026-05-07 15:54 | 46.77254 | 9.47173 | 37002 ft | 507 kts | 130° |
| 2026-05-07 15:55 | 46.73066 | 9.55365 | 36990 ft | 507 kts | 130° |
| 2026-05-07 15:55 | 46.68852 | 9.63586 | 37008 ft | 507 kts | 130° |
| 2026-05-07 15:56 | 46.64618 | 9.71819 | 37042 ft | 509 kts | 130° |
| 2026-05-07 15:56 | 46.60363 | 9.80071 | 37017 ft | 510 kts | 130° |
| 2026-05-07 15:57 | 46.56133 | 9.88250 | 37013 ft | 509 kts | 130° |
| 2026-05-07 15:57 | 46.51878 | 9.96459 | 37008 ft | 508 kts | 130° |
| 2026-05-07 15:58 | 46.47648 | 10.04639 | 37018 ft | 507 kts | 129° |
| 2026-05-07 15:58 | 46.43804 | 10.13223 | 37017 ft | 508 kts | 126° |
| 2026-05-07 15:59 | 46.40064 | 10.21842 | 37003 ft | 509 kts | 126° |
| 2026-05-07 15:59 | 46.36275 | 10.30526 | 36979 ft | 510 kts | 126° |
| 2026-05-07 16:00 | 46.32471 | 10.39147 | 37020 ft | 509 kts | 126° |
| 2026-05-07 16:00 | 46.28647 | 10.47769 | 36979 ft | 510 kts | 126° |
| 2026-05-07 16:01 | 46.24820 | 10.56376 | 37022 ft | 509 kts | 126° |
| 2026-05-07 16:01 | 46.20998 | 10.64935 | 37032 ft | 512 kts | 126° |
| 2026-05-07 16:02 | 46.17132 | 10.73573 | 37037 ft | 513 kts | 127° |
| 2026-05-07 16:02 | 46.13256 | 10.82214 | 37034 ft | 514 kts | 127° |
| 2026-05-07 16:03 | 46.09364 | 10.90865 | 37041 ft | 514 kts | 127° |
| 2026-05-07 16:03 | 46.05493 | 10.99440 | 37029 ft | 514 kts | 127° |
| 2026-05-07 16:04 | 46.01597 | 11.08045 | 37005 ft | 512 kts | 127° |
| 2026-05-07 16:04 | 45.97713 | 11.16594 | 37012 ft | 510 kts | 127° |
| 2026-05-07 16:05 | 45.93835 | 11.25107 | 36996 ft | 508 kts | 127° |
| 2026-05-07 16:05 | 45.89960 | 11.33580 | 36997 ft | 508 kts | 127° |
| 2026-05-07 16:06 | 45.86102 | 11.41993 | 36983 ft | 509 kts | 128° |
| 2026-05-07 16:06 | 45.82202 | 11.50475 | 36972 ft | 509 kts | 128° |
| 2026-05-07 16:07 | 45.78307 | 11.58925 | 36963 ft | 509 kts | 128° |
| 2026-05-07 16:07 | 45.74397 | 11.67378 | 36958 ft | 508 kts | 128° |
| 2026-05-07 16:08 | 45.70519 | 11.75736 | 36960 ft | 507 kts | 128° |
| 2026-05-07 16:08 | 45.66612 | 11.84133 | 36955 ft | 507 kts | 128° |
| 2026-05-07 16:09 | 45.62697 | 11.92522 | 36962 ft | 507 kts | 128° |
| 2026-05-07 16:09 | 45.58781 | 12.00886 | 36953 ft | 507 kts | 129° |
| 2026-05-07 16:10 | 45.54856 | 12.09248 | 36966 ft | 507 kts | 129° |
| 2026-05-07 16:10 | 45.50954 | 12.17534 | 36961 ft | 507 kts | 129° |
| 2026-05-07 16:11 | 45.47018 | 12.25869 | 36964 ft | 507 kts | 129° |
| 2026-05-07 16:11 | 45.43254 | 12.33818 | 36963 ft | 507 kts | 129° |
| 2026-05-07 16:12 | 45.39311 | 12.42118 | 36964 ft | 506 kts | 129° |
| 2026-05-07 16:12 | 45.35358 | 12.50417 | 36961 ft | 506 kts | 129° |
| 2026-05-07 16:13 | 45.31429 | 12.58641 | 36966 ft | 506 kts | 129° |
| 2026-05-07 16:13 | 45.27471 | 12.66903 | 36966 ft | 506 kts | 129° |
| 2026-05-07 16:14 | 45.23515 | 12.75137 | 36970 ft | 505 kts | 130° |
| 2026-05-07 16:14 | 45.19546 | 12.83375 | 36975 ft | 505 kts | 130° |
| 2026-05-07 16:15 | 45.15573 | 12.91594 | 36973 ft | 504 kts | 130° |
| 2026-05-07 16:15 | 45.11633 | 12.99725 | 36972 ft | 504 kts | 130° |
| 2026-05-07 16:16 | 45.07667 | 13.07886 | 36979 ft | 503 kts | 130° |
| 2026-05-07 16:16 | 45.03695 | 13.16034 | 36979 ft | 503 kts | 130° |
| 2026-05-07 16:17 | 44.99722 | 13.24162 | 36985 ft | 502 kts | 130° |
| 2026-05-07 16:17 | 44.95778 | 13.32210 | 36984 ft | 502 kts | 130° |
| 2026-05-07 16:18 | 44.91804 | 13.40295 | 36991 ft | 501 kts | 130° |
| 2026-05-07 16:18 | 44.87827 | 13.48366 | 36997 ft | 501 kts | 130° |
| 2026-05-07 16:19 | 44.83842 | 13.56413 | 37001 ft | 500 kts | 131° |
| 2026-05-07 16:19 | 44.79694 | 13.64133 | 37009 ft | 497 kts | 133° |
| 2026-05-07 16:20 | 44.75412 | 13.71788 | 37012 ft | 497 kts | 134° |
| 2026-05-07 16:20 | 44.71150 | 13.79451 | 37005 ft | 498 kts | 133° |
| 2026-05-07 16:21 | 44.66908 | 13.87136 | 37018 ft | 498 kts | 133° |
| 2026-05-07 16:21 | 44.62695 | 13.94776 | 37013 ft | 498 kts | 133° |
| 2026-05-07 16:22 | 44.58447 | 14.02458 | 37008 ft | 498 kts | 133° |
| 2026-05-07 16:22 | 44.54189 | 14.10130 | 37006 ft | 498 kts | 133° |
| 2026-05-07 16:23 | 44.49928 | 14.17787 | 37004 ft | 498 kts | 133° |
| 2026-05-07 16:23 | 44.45665 | 14.25425 | 37003 ft | 498 kts | 133° |
| 2026-05-07 16:24 | 44.41421 | 14.33012 | 37010 ft | 498 kts | 133° |
| 2026-05-07 16:24 | 44.37149 | 14.40627 | 37012 ft | 498 kts | 133° |
| 2026-05-07 16:25 | 44.32874 | 14.48228 | 37009 ft | 498 kts | 133° |
| 2026-05-07 16:25 | 44.28588 | 14.55829 | 37008 ft | 498 kts | 133° |
| 2026-05-07 16:26 | 44.24325 | 14.63368 | 37012 ft | 498 kts | 133° |
| 2026-05-07 16:26 | 44.20031 | 14.70943 | 37014 ft | 499 kts | 134° |
| 2026-05-07 16:27 | 44.15722 | 14.78524 | 37011 ft | 499 kts | 134° |
| 2026-05-07 16:27 | 44.11405 | 14.86100 | 37012 ft | 499 kts | 134° |
| 2026-05-07 16:28 | 44.07081 | 14.93670 | 37014 ft | 500 kts | 134° |
| 2026-05-07 16:28 | 44.02749 | 15.01231 | 37017 ft | 501 kts | 134° |
| 2026-05-07 16:29 | 43.98430 | 15.08756 | 37007 ft | 502 kts | 134° |
| 2026-05-07 16:29 | 43.94078 | 15.16317 | 37011 ft | 502 kts | 134° |
| 2026-05-07 16:30 | 43.89686 | 15.23832 | 37030 ft | 502 kts | 135° |
| 2026-05-07 16:30 | 43.85252 | 15.31317 | 37026 ft | 502 kts | 135° |
| 2026-05-07 16:31 | 43.80819 | 15.38788 | 37022 ft | 502 kts | 135° |
| 2026-05-07 16:31 | 43.76422 | 15.46202 | 37022 ft | 502 kts | 135° |
| 2026-05-07 16:32 | 43.71993 | 15.53653 | 37026 ft | 501 kts | 135° |
| 2026-05-07 16:32 | 43.67562 | 15.61087 | 37020 ft | 501 kts | 135° |
| 2026-05-07 16:33 | 43.63125 | 15.68514 | 37029 ft | 501 kts | 135° |
| 2026-05-07 16:33 | 43.58711 | 15.75881 | 37022 ft | 501 kts | 135° |
| 2026-05-07 16:34 | 43.54269 | 15.83277 | 37028 ft | 501 kts | 135° |
| 2026-05-07 16:34 | 43.49810 | 15.90682 | 37034 ft | 502 kts | 135° |
| 2026-05-07 16:35 | 43.45347 | 15.98074 | 37037 ft | 502 kts | 135° |
| 2026-05-07 16:35 | 43.40909 | 16.05408 | 37038 ft | 502 kts | 135° |
| 2026-05-07 16:36 | 43.36433 | 16.12784 | 37037 ft | 503 kts | 135° |
| 2026-05-07 16:36 | 43.31946 | 16.20162 | 37038 ft | 503 kts | 135° |
| 2026-05-07 16:37 | 43.27454 | 16.27528 | 37035 ft | 503 kts | 135° |
| 2026-05-07 16:37 | 43.22983 | 16.34843 | 37036 ft | 504 kts | 135° |
| 2026-05-07 16:38 | 43.18478 | 16.42196 | 37033 ft | 504 kts | 135° |
| 2026-05-07 16:38 | 43.13964 | 16.49546 | 37033 ft | 504 kts | 135° |
| 2026-05-07 16:39 | 43.09528 | 16.57004 | 37028 ft | 507 kts | 132° |
| 2026-05-07 16:39 | 43.05354 | 16.64790 | 37035 ft | 508 kts | 131° |
| 2026-05-07 16:40 | 43.01223 | 16.72568 | 37032 ft | 509 kts | 131° |
| 2026-05-07 16:40 | 42.97276 | 16.79934 | 37036 ft | 510 kts | 131° |
| 2026-05-07 16:41 | 42.96684 | 16.81033 | 37038 ft | 510 kts | 131° |
| 2026-05-07 16:41 | 42.96029 | 16.82248 | 37036 ft | 510 kts | 131° |
| 2026-05-07 16:42 | 42.91839 | 16.89998 | 37036 ft | 512 kts | 131° |
| 2026-05-07 16:42 | 42.87605 | 16.97806 | 37040 ft | 513 kts | 131° |
| 2026-05-07 16:43 | 42.83358 | 17.05624 | 37029 ft | 513 kts | 131° |
| 2026-05-07 16:43 | 42.79103 | 17.13436 | 37047 ft | 513 kts | 131° |
| 2026-05-07 16:44 | 42.74844 | 17.21236 | 37039 ft | 513 kts | 131° |
| 2026-05-07 16:44 | 42.70608 | 17.28974 | 37035 ft | 514 kts | 131° |
| 2026-05-07 16:45 | 42.66337 | 17.36754 | 37040 ft | 513 kts | 131° |
| 2026-05-07 16:45 | 42.62060 | 17.44525 | 37042 ft | 513 kts | 131° |
| 2026-05-07 16:46 | 42.57782 | 17.52282 | 37036 ft | 513 kts | 131° |
| 2026-05-07 16:46 | 42.53503 | 17.60017 | 37039 ft | 513 kts | 131° |
| 2026-05-07 16:47 | 42.49245 | 17.67693 | 37042 ft | 513 kts | 131° |
| 2026-05-07 16:47 | 42.44957 | 17.75407 | 37046 ft | 513 kts | 131° |
| 2026-05-07 16:48 | 42.40660 | 17.83118 | 37046 ft | 513 kts | 131° |
| 2026-05-07 16:48 | 42.36358 | 17.90821 | 37053 ft | 513 kts | 131° |
| 2026-05-07 16:49 | 42.32074 | 17.98472 | 37056 ft | 513 kts | 131° |
| 2026-05-07 16:49 | 42.27761 | 18.06154 | 37052 ft | 514 kts | 131° |
| 2026-05-07 16:50 | 42.23434 | 18.13843 | 37056 ft | 514 kts | 131° |
| 2026-05-07 16:50 | 42.19112 | 18.21503 | 37047 ft | 513 kts | 131° |
| 2026-05-07 16:51 | 42.14812 | 18.29104 | 37045 ft | 513 kts | 131° |
| 2026-05-07 16:51 | 42.10486 | 18.36734 | 37048 ft | 512 kts | 131° |
| 2026-05-07 16:52 | 42.06168 | 18.44330 | 37053 ft | 511 kts | 131° |
| 2026-05-07 16:52 | 42.01843 | 18.51923 | 37049 ft | 510 kts | 131° |
| 2026-05-07 16:53 | 41.97337 | 18.59252 | 37062 ft | 507 kts | 135° |
| 2026-05-07 16:53 | 41.92723 | 18.66340 | 37053 ft | 507 kts | 134° |
| 2026-05-07 16:54 | 41.88205 | 18.73640 | 37059 ft | 508 kts | 133° |
| 2026-05-07 16:54 | 41.83772 | 18.80986 | 37056 ft | 508 kts | 132° |
| 2026-05-07 16:55 | 41.79310 | 18.88348 | 37059 ft | 507 kts | 133° |
| 2026-05-07 16:55 | 41.74841 | 18.95659 | 37063 ft | 507 kts | 133° |
| 2026-05-07 16:56 | 41.70362 | 19.02952 | 37052 ft | 507 kts | 133° |
| 2026-05-07 16:56 | 41.63661 | 19.13829 | 37066 ft | 507 kts | 133° |
| 2026-05-07 16:57 | 41.59170 | 19.21099 | 37073 ft | 507 kts | 133° |
| 2026-05-07 16:57 | 41.54678 | 19.28355 | 37067 ft | 507 kts | 133° |
| 2026-05-07 16:58 | 41.50179 | 19.35605 | 37071 ft | 507 kts | 133° |
| 2026-05-07 16:58 | 41.45680 | 19.42836 | 37071 ft | 506 kts | 132° |
| 2026-05-07 16:59 | 41.41217 | 19.49993 | 37074 ft | 505 kts | 132° |
| 2026-05-07 16:59 | 41.36732 | 19.57167 | 37072 ft | 504 kts | 132° |
| 2026-05-07 17:00 | 41.32247 | 19.64326 | 37073 ft | 503 kts | 132° |
| 2026-05-07 17:00 | 41.27767 | 19.71462 | 37090 ft | 501 kts | 132° |
| 2026-05-07 17:01 | 41.23289 | 19.78573 | 37074 ft | 502 kts | 132° |
| 2026-05-07 17:01 | 41.18814 | 19.85663 | 37076 ft | 503 kts | 132° |
| 2026-05-07 17:02 | 41.14340 | 19.92737 | 37063 ft | 504 kts | 132° |
| 2026-05-07 17:02 | 41.09824 | 19.99861 | 37070 ft | 505 kts | 133° |
| 2026-05-07 17:03 | 41.05301 | 20.06979 | 37077 ft | 505 kts | 133° |
| 2026-05-07 17:03 | 41.00794 | 20.14055 | 37070 ft | 506 kts | 133° |
| 2026-05-07 17:04 | 40.96251 | 20.21170 | 37094 ft | 507 kts | 133° |
| 2026-05-07 17:04 | 40.91693 | 20.28293 | 37094 ft | 508 kts | 133° |
| 2026-05-07 17:05 | 40.87125 | 20.35415 | 37089 ft | 508 kts | 133° |
| 2026-05-07 17:05 | 40.82541 | 20.42545 | 37095 ft | 509 kts | 133° |
| 2026-05-07 17:06 | 40.77990 | 20.49607 | 37104 ft | 509 kts | 133° |
| 2026-05-07 17:06 | 40.73403 | 20.56710 | 37111 ft | 508 kts | 133° |
| 2026-05-07 17:07 | 40.68825 | 20.63780 | 37122 ft | 508 kts | 133° |
| 2026-05-07 17:07 | 40.64230 | 20.70863 | 37115 ft | 509 kts | 133° |
| 2026-05-07 17:08 | 40.59621 | 20.77950 | 37127 ft | 509 kts | 133° |
| 2026-05-07 17:08 | 40.55046 | 20.84971 | 37120 ft | 510 kts | 133° |
| 2026-05-07 17:09 | 40.50425 | 20.92046 | 37124 ft | 509 kts | 133° |
| 2026-05-07 17:09 | 40.45544 | 20.98729 | 37116 ft | 505 kts | 141° |
| 2026-05-07 17:10 | 40.40243 | 21.04775 | 37121 ft | 504 kts | 142° |
| 2026-05-07 17:10 | 40.34974 | 21.10746 | 37122 ft | 504 kts | 142° |
| 2026-05-07 17:11 | 40.29684 | 21.16797 | 37132 ft | 505 kts | 142° |
| 2026-05-07 17:11 | 40.24403 | 21.22860 | 37123 ft | 506 kts | 142° |
| 2026-05-07 17:12 | 40.19140 | 21.28889 | 37112 ft | 507 kts | 142° |
| 2026-05-07 17:12 | 40.13821 | 21.34965 | 37111 ft | 508 kts | 142° |
| 2026-05-07 17:13 | 40.08496 | 21.41031 | 37123 ft | 508 kts | 142° |
| 2026-05-07 17:13 | 40.03161 | 21.47100 | 37115 ft | 509 kts | 142° |
| 2026-05-07 17:14 | 39.97812 | 21.53171 | 37109 ft | 510 kts | 142° |
| 2026-05-07 17:14 | 39.92532 | 21.59267 | 37104 ft | 511 kts | 140° |
| 2026-05-07 17:15 | 39.87296 | 21.65559 | 37121 ft | 512 kts | 140° |
| 2026-05-07 17:15 | 39.82063 | 21.71866 | 37095 ft | 513 kts | 140° |
| 2026-05-07 17:16 | 39.76809 | 21.78146 | 37094 ft | 513 kts | 140° |
| 2026-05-07 17:16 | 39.71576 | 21.84364 | 37084 ft | 514 kts | 140° |
| 2026-05-07 17:17 | 39.66292 | 21.90623 | 37096 ft | 514 kts | 140° |
| 2026-05-07 17:17 | 39.61008 | 21.96872 | 37083 ft | 515 kts | 140° |
| 2026-05-07 17:18 | 39.55704 | 22.03132 | 37086 ft | 515 kts | 140° |
| 2026-05-07 17:18 | 39.50442 | 22.09331 | 37088 ft | 515 kts | 141° |
| 2026-05-07 17:19 | 39.45138 | 22.15564 | 37087 ft | 515 kts | 141° |
| 2026-05-07 17:19 | 39.39827 | 22.21793 | 37085 ft | 516 kts | 141° |
| 2026-05-07 17:20 | 39.34512 | 22.28012 | 37093 ft | 516 kts | 141° |
| 2026-05-07 17:20 | 39.29215 | 22.34197 | 37087 ft | 517 kts | 141° |
| 2026-05-07 17:21 | 39.23871 | 22.40424 | 37098 ft | 518 kts | 141° |
| 2026-05-07 17:21 | 39.18518 | 22.46647 | 37093 ft | 519 kts | 141° |
| 2026-05-07 17:22 | 39.13145 | 22.52882 | 37112 ft | 520 kts | 141° |
| 2026-05-07 17:22 | 39.07762 | 22.59114 | 37088 ft | 521 kts | 141° |
| 2026-05-07 17:23 | 39.02414 | 22.65292 | 37097 ft | 521 kts | 141° |
| 2026-05-07 17:23 | 38.97021 | 22.71510 | 37113 ft | 521 kts | 141° |
| 2026-05-07 17:24 | 38.91608 | 22.77737 | 37096 ft | 522 kts | 141° |
| 2026-05-07 17:24 | 38.86222 | 22.83920 | 37099 ft | 522 kts | 141° |
| 2026-05-07 17:25 | 38.80807 | 22.90122 | 37102 ft | 522 kts | 141° |
| 2026-05-07 17:25 | 38.75389 | 22.96315 | 37095 ft | 522 kts | 141° |
| 2026-05-07 17:26 | 38.69970 | 23.02496 | 37096 ft | 522 kts | 141° |
| 2026-05-07 17:26 | 38.64536 | 23.08681 | 37095 ft | 523 kts | 141° |
| 2026-05-07 17:27 | 38.59130 | 23.14821 | 37102 ft | 523 kts | 141° |
| 2026-05-07 17:27 | 38.53682 | 23.20996 | 36929 ft | 525 kts | 143° |
| 2026-05-07 17:28 | 38.49107 | 23.26169 | 37035 ft | 535 kts | 142° |
| 2026-05-07 17:28 | 38.43448 | 23.32551 | 37109 ft | 550 kts | 142° |
| 2026-05-07 17:29 | 38.36687 | 23.40164 | 37121 ft | 564 kts | 142° |
| 2026-05-07 17:29 | 38.30810 | 23.46774 | 37120 ft | 563 kts | 142° |
| 2026-05-07 17:30 | 38.24938 | 23.53364 | 37120 ft | 562 kts | 142° |
| 2026-05-07 17:30 | 38.19081 | 23.59916 | 37130 ft | 560 kts | 142° |
| 2026-05-07 17:31 | 38.14215 | 23.65347 | 37115 ft | 559 kts | 142° |
| 2026-05-07 17:31 | 38.07444 | 23.72888 | 37124 ft | 556 kts | 142° |
| 2026-05-07 17:32 | 38.02569 | 23.78306 | 37140 ft | 556 kts | 142° |
| 2026-05-07 17:32 | 37.96777 | 23.84729 | 37131 ft | 558 kts | 142° |
| 2026-05-07 17:33 | 37.90930 | 23.91200 | 37136 ft | 559 kts | 142° |
| 2026-05-07 17:33 | 37.85057 | 23.97685 | 37143 ft | 561 kts | 141° |
| 2026-05-07 17:34 | 37.79222 | 24.04115 | 37133 ft | 561 kts | 142° |
| 2026-05-07 17:34 | 37.73334 | 24.10590 | 37126 ft | 562 kts | 142° |
| 2026-05-07 17:35 | 37.67441 | 24.17055 | 37122 ft | 562 kts | 142° |
| 2026-05-07 17:35 | 37.61536 | 24.23522 | 37125 ft | 562 kts | 141° |
| 2026-05-07 17:36 | 37.55638 | 24.29987 | 37145 ft | 562 kts | 140° |
| 2026-05-07 17:36 | 37.50051 | 24.36781 | 37137 ft | 562 kts | 137° |
| 2026-05-07 17:37 | 37.44518 | 24.43727 | 37130 ft | 562 kts | 136° |
| 2026-05-07 17:37 | 37.38957 | 24.50666 | 37138 ft | 562 kts | 137° |
| 2026-05-07 17:38 | 37.33388 | 24.57551 | 37139 ft | 563 kts | 137° |
| 2026-05-07 17:38 | 37.27828 | 24.64395 | 37142 ft | 563 kts | 137° |
| 2026-05-07 17:39 | 37.22231 | 24.71274 | 37143 ft | 563 kts | 137° |
| 2026-05-07 17:39 | 37.16629 | 24.78148 | 37144 ft | 563 kts | 137° |
| 2026-05-07 17:40 | 37.11031 | 24.85003 | 37148 ft | 564 kts | 137° |
| 2026-05-07 17:40 | 37.05409 | 24.91872 | 37150 ft | 564 kts | 137° |
| 2026-05-07 17:41 | 36.99825 | 24.98680 | 37154 ft | 565 kts | 137° |
| 2026-05-07 17:41 | 36.94193 | 25.05535 | 37160 ft | 565 kts | 137° |
| 2026-05-07 17:42 | 36.88543 | 25.12349 | 37155 ft | 565 kts | 137° |
| 2026-05-07 17:42 | 36.82829 | 25.19105 | 37148 ft | 565 kts | 137° |
| 2026-05-07 17:43 | 36.77113 | 25.25849 | 37142 ft | 566 kts | 137° |
| 2026-05-07 17:43 | 36.71437 | 25.32558 | 37129 ft | 566 kts | 137° |
| 2026-05-07 17:44 | 36.65726 | 25.39298 | 37162 ft | 565 kts | 137° |
| 2026-05-07 17:44 | 36.60066 | 25.46091 | 37144 ft | 566 kts | 136° |
| 2026-05-07 17:45 | 36.54455 | 25.52960 | 37148 ft | 566 kts | 136° |
| 2026-05-07 17:45 | 36.48877 | 25.59763 | 37168 ft | 566 kts | 136° |
| 2026-05-07 17:46 | 36.43225 | 25.66609 | 37150 ft | 567 kts | 136° |
| 2026-05-07 17:46 | 36.37569 | 25.73439 | 37144 ft | 568 kts | 136° |
| 2026-05-07 17:47 | 36.31929 | 25.80237 | 37116 ft | 569 kts | 136° |
| 2026-05-07 17:47 | 36.26257 | 25.87067 | 37131 ft | 569 kts | 136° |
| 2026-05-07 17:48 | 36.20563 | 25.93875 | 37150 ft | 568 kts | 136° |
| 2026-05-07 17:48 | 36.14796 | 26.00661 | 37134 ft | 568 kts | 137° |
| 2026-05-07 17:49 | 36.09096 | 26.07342 | 37135 ft | 568 kts | 137° |
| 2026-05-07 17:49 | 36.03372 | 26.14055 | 37143 ft | 568 kts | 136° |
| 2026-05-07 17:50 | 35.97643 | 26.20769 | 37143 ft | 568 kts | 136° |
| 2026-05-07 17:50 | 35.91948 | 26.27431 | 37140 ft | 568 kts | 136° |
| 2026-05-07 17:51 | 35.86222 | 26.34114 | 37152 ft | 568 kts | 136° |
| 2026-05-07 17:51 | 35.80466 | 26.40815 | 37154 ft | 568 kts | 136° |
| 2026-05-07 17:52 | 35.74715 | 26.47497 | 37138 ft | 569 kts | 136° |
| 2026-05-07 17:52 | 35.68962 | 26.54168 | 37146 ft | 569 kts | 136° |
| 2026-05-07 17:53 | 35.63235 | 26.60795 | 37149 ft | 569 kts | 136° |
| 2026-05-07 17:53 | 35.57468 | 26.67455 | 37151 ft | 569 kts | 136° |
| 2026-05-07 17:54 | 35.51691 | 26.74113 | 37141 ft | 570 kts | 136° |
| 2026-05-07 17:54 | 35.45906 | 26.80765 | 37162 ft | 570 kts | 136° |
| 2026-05-07 17:55 | 35.40155 | 26.87365 | 37161 ft | 570 kts | 136° |
| 2026-05-07 17:55 | 35.34375 | 26.93988 | 37181 ft | 568 kts | 136° |
| 2026-05-07 17:56 | 35.28588 | 27.00600 | 37153 ft | 569 kts | 136° |
| 2026-05-07 17:56 | 35.22831 | 27.07165 | 37158 ft | 569 kts | 136° |
| 2026-05-07 17:57 | 35.17974 | 27.12696 | 37162 ft | 569 kts | 136° |
| 2026-05-07 17:57 | 35.11234 | 27.20356 | 37152 ft | 570 kts | 136° |
| 2026-05-07 17:58 | 35.05430 | 27.26938 | 37157 ft | 570 kts | 136° |
| 2026-05-07 17:58 | 34.99655 | 27.33459 | 37151 ft | 570 kts | 136° |
| 2026-05-07 17:59 | 34.93832 | 27.40014 | 37162 ft | 569 kts | 136° |
| 2026-05-07 17:59 | 34.88008 | 27.46559 | 37153 ft | 569 kts | 136° |
| 2026-05-07 18:00 | 34.82186 | 27.53093 | 37162 ft | 569 kts | 136° |
| 2026-05-07 18:00 | 34.76365 | 27.59613 | 37155 ft | 569 kts | 136° |
| 2026-05-07 18:01 | 34.70575 | 27.66085 | 37162 ft | 569 kts | 136° |
| 2026-05-07 18:01 | 34.64750 | 27.72584 | 37167 ft | 568 kts | 136° |
| 2026-05-07 18:02 | 34.56009 | 27.82310 | 37173 ft | 568 kts | 136° |
| 2026-05-07 18:03 | 34.50227 | 27.88727 | 37175 ft | 567 kts | 136° |
| 2026-05-07 18:03 | 34.44408 | 27.95174 | 37152 ft | 567 kts | 136° |
| 2026-05-07 18:04 | 34.38583 | 28.01613 | 37152 ft | 566 kts | 136° |
| 2026-05-07 18:04 | 34.32760 | 28.08039 | 37165 ft | 566 kts | 136° |
| 2026-05-07 18:05 | 34.26939 | 28.14450 | 37176 ft | 566 kts | 136° |
| 2026-05-07 18:05 | 34.21156 | 28.20806 | 37155 ft | 566 kts | 136° |
| 2026-05-07 18:06 | 34.15325 | 28.27203 | 37155 ft | 566 kts | 136° |
| 2026-05-07 18:06 | 34.09494 | 28.33587 | 37177 ft | 565 kts | 136° |
| 2026-05-07 18:07 | 34.03669 | 28.39952 | 37169 ft | 565 kts | 136° |
| 2026-05-07 18:07 | 33.97885 | 28.46261 | 37156 ft | 565 kts | 136° |
| 2026-05-07 18:08 | 33.92062 | 28.52599 | 37159 ft | 564 kts | 136° |
| 2026-05-07 18:08 | 33.86242 | 28.58924 | 37159 ft | 563 kts | 136° |
| 2026-05-07 18:09 | 33.80426 | 28.65231 | 37175 ft | 562 kts | 136° |
| 2026-05-07 18:09 | 33.74656 | 28.71479 | 37162 ft | 562 kts | 136° |
| 2026-05-07 18:10 | 33.68869 | 28.77768 | 37161 ft | 561 kts | 135° |
| 2026-05-07 18:10 | 33.63174 | 28.84157 | 37162 ft | 560 kts | 134° |
| 2026-05-07 18:11 | 33.57516 | 28.90556 | 37183 ft | 559 kts | 134° |
| 2026-05-07 18:11 | 33.51845 | 28.96928 | 37164 ft | 558 kts | 135° |
| 2026-05-07 18:12 | 33.46199 | 29.03234 | 37164 ft | 558 kts | 135° |
| 2026-05-07 18:12 | 33.40529 | 29.09550 | 37168 ft | 557 kts | 135° |
| 2026-05-07 18:13 | 33.34853 | 29.15862 | 37163 ft | 556 kts | 135° |
| 2026-05-07 18:13 | 33.29186 | 29.22156 | 37162 ft | 556 kts | 135° |
| 2026-05-07 18:14 | 33.23564 | 29.28388 | 37159 ft | 555 kts | 135° |
| 2026-05-07 18:14 | 33.17898 | 29.34658 | 37159 ft | 554 kts | 135° |
| 2026-05-07 18:15 | 33.12246 | 29.40900 | 37161 ft | 554 kts | 135° |
| 2026-05-07 18:15 | 33.06592 | 29.47133 | 37161 ft | 553 kts | 135° |
| 2026-05-07 18:16 | 33.00953 | 29.53339 | 37164 ft | 552 kts | 135° |
| 2026-05-07 18:16 | 32.95340 | 29.59504 | 37159 ft | 552 kts | 135° |
| 2026-05-07 18:17 | 32.89702 | 29.65686 | 37159 ft | 551 kts | 135° |
| 2026-05-07 18:17 | 32.84067 | 29.71853 | 37160 ft | 550 kts | 135° |
| 2026-05-07 18:18 | 32.78437 | 29.78004 | 37167 ft | 549 kts | 135° |
| 2026-05-07 18:18 | 32.72850 | 29.84098 | 37158 ft | 549 kts | 135° |
| 2026-05-07 18:19 | 32.67227 | 29.90219 | 37159 ft | 548 kts | 135° |
| 2026-05-07 18:19 | 32.61610 | 29.96322 | 37154 ft | 547 kts | 135° |
| 2026-05-07 18:20 | 32.56001 | 30.02408 | 37156 ft | 546 kts | 135° |
| 2026-05-07 18:20 | 32.50414 | 30.08460 | 37053 ft | 537 kts | 135° |
| 2026-05-07 18:20 | 32.47711 | 30.11381 | 36647 ft | 531 kts | 135° |
| 2026-05-07 18:21 | 32.44994 | 30.14312 | 36210 ft | 526 kts | 135° |
| 2026-05-07 18:21 | 32.42300 | 30.17214 | 35786 ft | 521 kts | 135° |
| 2026-05-07 18:21 | 32.39632 | 30.20087 | 35369 ft | 516 kts | 136° |
| 2026-05-07 18:21 | 32.36990 | 30.22931 | 34955 ft | 511 kts | 136° |
| 2026-05-07 18:22 | 32.34372 | 30.25748 | 34554 ft | 507 kts | 136° |
| 2026-05-07 18:22 | 32.32653 | 30.27596 | 34290 ft | 504 kts | 136° |
| 2026-05-07 18:22 | 32.29201 | 30.31306 | 33702 ft | 497 kts | 136° |
| 2026-05-07 18:22 | 32.26656 | 30.34038 | 33244 ft | 493 kts | 136° |
| 2026-05-07 18:23 | 32.24158 | 30.36717 | 32803 ft | 489 kts | 136° |
| 2026-05-07 18:23 | 32.21652 | 30.39404 | 32303 ft | 486 kts | 136° |
| 2026-05-07 18:23 | 32.19159 | 30.42075 | 31801 ft | 483 kts | 136° |
| 2026-05-07 18:23 | 32.16680 | 30.44728 | 31315 ft | 480 kts | 136° |
| 2026-05-07 18:24 | 32.14213 | 30.47366 | 30836 ft | 476 kts | 137° |
| 2026-05-07 18:24 | 32.11770 | 30.49977 | 30352 ft | 473 kts | 137° |
| 2026-05-07 18:24 | 32.09340 | 30.52571 | 29893 ft | 468 kts | 137° |
| 2026-05-07 18:24 | 32.06940 | 30.55131 | 29447 ft | 462 kts | 137° |
| 2026-05-07 18:25 | 32.04600 | 30.57625 | 29002 ft | 457 kts | 137° |
| 2026-05-07 18:25 | 32.02257 | 30.60121 | 28585 ft | 451 kts | 137° |
| 2026-05-07 18:25 | 31.99941 | 30.62587 | 28139 ft | 446 kts | 137° |
| 2026-05-07 18:25 | 31.97650 | 30.65024 | 27748 ft | 441 kts | 137° |
| 2026-05-07 18:26 | 31.95391 | 30.67425 | 27384 ft | 435 kts | 137° |
| 2026-05-07 18:26 | 31.93161 | 30.69795 | 27014 ft | 429 kts | 137° |
| 2026-05-07 18:26 | 31.90966 | 30.72125 | 26668 ft | 424 kts | 137° |
| 2026-05-07 18:26 | 31.88785 | 30.74439 | 26311 ft | 419 kts | 137° |
| 2026-05-07 18:27 | 31.86630 | 30.76724 | 25951 ft | 414 kts | 137° |
| 2026-05-07 18:27 | 31.84498 | 30.78983 | 25613 ft | 410 kts | 137° |
| 2026-05-07 18:27 | 31.82421 | 30.81183 | 25284 ft | 406 kts | 137° |
| 2026-05-07 18:27 | 31.80335 | 30.83390 | 24945 ft | 402 kts | 137° |
| 2026-05-07 18:28 | 31.78415 | 30.85421 | 24643 ft | 398 kts | 137° |
| 2026-05-07 18:28 | 31.78284 | 30.85559 | 24613 ft | 398 kts | 137° |
| 2026-05-07 18:30 | 31.77063 | 30.86850 | 24437 ft | 395 kts | 137° |
| 2026-05-07 18:31 | 31.75027 | 30.89001 | 24103 ft | 392 kts | 137° |
| 2026-05-07 18:31 | 31.73007 | 30.91135 | 23795 ft | 388 kts | 137° |
| 2026-05-07 18:31 | 31.71010 | 30.93242 | 23428 ft | 385 kts | 137° |
| 2026-05-07 18:31 | 31.69026 | 30.95335 | 23040 ft | 381 kts | 137° |
| 2026-05-07 18:32 | 31.67090 | 30.97375 | 22684 ft | 378 kts | 137° |
| 2026-05-07 18:32 | 31.65139 | 30.99430 | 22319 ft | 375 kts | 137° |
| 2026-05-07 18:32 | 31.63233 | 31.01438 | 21949 ft | 372 kts | 138° |
| 2026-05-07 18:32 | 31.61311 | 31.03461 | 21608 ft | 369 kts | 138° |
| 2026-05-07 18:33 | 31.59407 | 31.05464 | 21244 ft | 366 kts | 138° |
| 2026-05-07 18:33 | 31.57514 | 31.07453 | 20896 ft | 364 kts | 138° |
| 2026-05-07 18:33 | 31.55637 | 31.09424 | 20558 ft | 361 kts | 138° |
| 2026-05-07 18:33 | 31.53667 | 31.11199 | 20188 ft | 357 kts | 150° |
| 2026-05-07 18:34 | 31.51467 | 31.12405 | 19857 ft | 352 kts | 162° |
| 2026-05-07 18:34 | 31.49110 | 31.13107 | 19518 ft | 347 kts | 172° |
| 2026-05-07 18:34 | 31.46735 | 31.13561 | 19212 ft | 345 kts | 173° |
| 2026-05-07 18:34 | 31.44376 | 31.13982 | 18875 ft | 342 kts | 173° |
| 2026-05-07 18:35 | 31.42020 | 31.14398 | 18565 ft | 340 kts | 173° |
| 2026-05-07 18:35 | 31.39701 | 31.14811 | 18267 ft | 337 kts | 173° |
| 2026-05-07 18:35 | 31.37397 | 31.15227 | 17967 ft | 333 kts | 173° |
| 2026-05-07 18:35 | 31.35120 | 31.15643 | 17671 ft | 329 kts | 173° |
| 2026-05-07 18:36 | 31.32902 | 31.16051 | 17385 ft | 325 kts | 173° |
| 2026-05-07 18:36 | 31.30681 | 31.16462 | 17104 ft | 323 kts | 173° |
| 2026-05-07 18:36 | 31.28475 | 31.16871 | 16841 ft | 319 kts | 173° |
| 2026-05-07 18:36 | 31.26296 | 31.17276 | 16591 ft | 316 kts | 172° |
| 2026-05-07 18:37 | 31.24129 | 31.17679 | 16334 ft | 313 kts | 172° |
| 2026-05-07 18:37 | 31.21985 | 31.18078 | 16088 ft | 311 kts | 172° |
| 2026-05-07 18:37 | 31.19855 | 31.18475 | 15840 ft | 310 kts | 172° |
| 2026-05-07 18:37 | 31.17718 | 31.18872 | 15601 ft | 312 kts | 172° |
| 2026-05-07 18:38 | 31.15559 | 31.19273 | 15375 ft | 315 kts | 172° |
| 2026-05-07 18:38 | 31.13391 | 31.19676 | 15140 ft | 316 kts | 172° |
| 2026-05-07 18:38 | 31.11255 | 31.20073 | 14918 ft | 315 kts | 172° |
| 2026-05-07 18:38 | 31.09092 | 31.20475 | 14683 ft | 315 kts | 172° |
| 2026-05-07 18:39 | 31.06927 | 31.20877 | 14446 ft | 314 kts | 172° |
| 2026-05-07 18:39 | 31.04770 | 31.21278 | 14215 ft | 313 kts | 172° |
| 2026-05-07 18:39 | 31.02622 | 31.21677 | 13993 ft | 312 kts | 172° |
| 2026-05-07 18:39 | 31.00482 | 31.22074 | 13742 ft | 311 kts | 172° |
| 2026-05-07 18:40 | 30.98341 | 31.22471 | 13483 ft | 310 kts | 172° |
| 2026-05-07 18:40 | 30.96218 | 31.22865 | 13228 ft | 308 kts | 172° |
| 2026-05-07 18:40 | 30.94106 | 31.23256 | 12970 ft | 307 kts | 172° |
| 2026-05-07 18:40 | 30.92032 | 31.23640 | 12722 ft | 305 kts | 172° |
| 2026-05-07 18:41 | 30.89945 | 31.24027 | 12469 ft | 303 kts | 172° |
| 2026-05-07 18:41 | 30.87864 | 31.24412 | 12209 ft | 301 kts | 172° |
| 2026-05-07 18:41 | 30.85802 | 31.24793 | 11990 ft | 300 kts | 172° |
| 2026-05-07 18:41 | 30.83749 | 31.25173 | 11738 ft | 298 kts | 172° |
| 2026-05-07 18:42 | 30.81709 | 31.25550 | 11488 ft | 296 kts | 172° |
| 2026-05-07 18:42 | 30.79684 | 31.25924 | 11247 ft | 294 kts | 172° |
| 2026-05-07 18:42 | 30.77668 | 31.26296 | 11009 ft | 292 kts | 172° |
| 2026-05-07 18:42 | 30.75664 | 31.26666 | 10764 ft | 291 kts | 172° |
| 2026-05-07 18:43 | 30.73703 | 31.27028 | 10523 ft | 289 kts | 172° |
| 2026-05-07 18:43 | 30.71718 | 31.27394 | 10298 ft | 287 kts | 172° |
| 2026-05-07 18:43 | 30.69752 | 31.27756 | 10068 ft | 286 kts | 172° |
| 2026-05-07 18:43 | 30.67791 | 31.28118 | 9820 ft | 285 kts | 172° |
| 2026-05-07 18:44 | 30.65842 | 31.28476 | 9562 ft | 283 kts | 172° |
| 2026-05-07 18:44 | 30.63895 | 31.28835 | 9307 ft | 282 kts | 172° |
| 2026-05-07 18:44 | 30.61960 | 31.29191 | 9057 ft | 281 kts | 172° |
| 2026-05-07 18:44 | 30.60032 | 31.29545 | 8806 ft | 280 kts | 172° |
| 2026-05-07 18:45 | 30.58136 | 31.29894 | 8563 ft | 279 kts | 172° |
| 2026-05-07 18:45 | 30.56224 | 31.30245 | 8315 ft | 278 kts | 171° |
| 2026-05-07 18:45 | 30.54308 | 31.30597 | 8069 ft | 278 kts | 171° |
| 2026-05-07 18:45 | 30.52403 | 31.30947 | 7831 ft | 277 kts | 171° |
| 2026-05-07 18:46 | 30.50507 | 31.31295 | 7590 ft | 276 kts | 171° |
| 2026-05-07 18:46 | 30.48615 | 31.31642 | 7339 ft | 275 kts | 171° |
| 2026-05-07 18:46 | 30.46730 | 31.31988 | 7101 ft | 274 kts | 171° |
| 2026-05-07 18:46 | 30.44870 | 31.32328 | 6884 ft | 273 kts | 171° |
| 2026-05-07 18:47 | 30.43002 | 31.32670 | 6680 ft | 271 kts | 171° |
| 2026-05-07 18:47 | 30.41160 | 31.33009 | 6574 ft | 265 kts | 171° |
| 2026-05-07 18:47 | 30.39343 | 31.33343 | 6428 ft | 265 kts | 171° |
| 2026-05-07 18:47 | 30.37506 | 31.33679 | 6334 ft | 270 kts | 171° |
| 2026-05-07 18:48 | 30.35632 | 31.34022 | 6228 ft | 273 kts | 171° |
| 2026-05-07 18:48 | 30.33753 | 31.34366 | 6086 ft | 274 kts | 170° |
| 2026-05-07 18:48 | 30.31870 | 31.34710 | 5978 ft | 274 kts | 170° |
| 2026-05-07 18:48 | 30.29986 | 31.35054 | 5864 ft | 274 kts | 171° |
| 2026-05-07 18:49 | 30.28131 | 31.35394 | 5723 ft | 273 kts | 170° |
| 2026-05-07 18:49 | 30.26237 | 31.35740 | 5606 ft | 272 kts | 170° |
| 2026-05-07 18:49 | 30.24399 | 31.36075 | 5488 ft | 270 kts | 170° |
| 2026-05-07 18:49 | 30.22549 | 31.36412 | 5359 ft | 268 kts | 170° |
| 2026-05-07 18:50 | 30.20715 | 31.36747 | 5219 ft | 265 kts | 170° |
| 2026-05-07 18:50 | 30.18898 | 31.37080 | 5096 ft | 263 kts | 170° |
| 2026-05-07 18:50 | 30.17094 | 31.37409 | 4977 ft | 263 kts | 170° |
| 2026-05-07 18:50 | 30.15380 | 31.37721 | 4866 ft | 263 kts | 170° |
| 2026-05-07 18:51 | 30.13567 | 31.38051 | 4749 ft | 265 kts | 170° |
| 2026-05-07 18:51 | 30.11726 | 31.38386 | 4630 ft | 269 kts | 169° |
| 2026-05-07 18:51 | 30.09901 | 31.38694 | 4567 ft | 267 kts | 175° |
| 2026-05-07 18:51 | 30.08083 | 31.38372 | 4513 ft | 263 kts | 201° |
| 2026-05-07 18:52 | 30.06405 | 31.37565 | 4502 ft | 259 kts | 203° |
| 2026-05-07 18:52 | 30.04757 | 31.36775 | 4496 ft | 257 kts | 203° |
| 2026-05-07 18:52 | 30.03064 | 31.35968 | 4543 ft | 268 kts | 202° |
| 2026-05-07 18:52 | 30.01365 | 31.35164 | 4584 ft | 258 kts | 203° |
| 2026-05-07 18:53 | 29.99759 | 31.34406 | 4580 ft | 241 kts | 203° |
| 2026-05-07 18:53 | 29.98267 | 31.33704 | 4530 ft | 222 kts | 203° |
| 2026-05-07 18:53 | 29.96887 | 31.33057 | 4510 ft | 210 kts | 203° |
| 2026-05-07 18:53 | 29.95553 | 31.32430 | 4505 ft | 210 kts | 203° |
| 2026-05-07 18:54 | 29.94190 | 31.31790 | 4344 ft | 214 kts | 202° |
| 2026-05-07 18:54 | 29.92859 | 31.31003 | 3987 ft | 216 kts | 218° |
| 2026-05-07 18:54 | 29.91852 | 31.29762 | 3639 ft | 211 kts | 241° |
| 2026-05-07 18:54 | 29.91322 | 31.28223 | 3305 ft | 204 kts | 265° |
| 2026-05-07 18:55 | 29.91311 | 31.26636 | 2954 ft | 197 kts | 286° |
| 2026-05-07 18:55 | 29.91765 | 31.25174 | 2600 ft | 190 kts | 307° |
| 2026-05-07 18:55 | 29.92558 | 31.24056 | 2483 ft | 169 kts | 326° |
| 2026-05-07 18:55 | 29.93508 | 31.23364 | 2486 ft | 156 kts | 343° |
| 2026-05-07 18:56 | 29.94503 | 31.23040 | 2479 ft | 148 kts | 358° |
| 2026-05-07 18:56 | 29.95522 | 31.23019 | 2491 ft | 145 kts | 10° |
| 2026-05-07 18:56 | 29.96507 | 31.23243 | 2494 ft | 145 kts | 18° |
| 2026-05-07 18:56 | 29.97460 | 31.23615 | 2485 ft | 144 kts | 27° |
| 2026-05-07 18:57 | 29.98272 | 31.24259 | 2492 ft | 141 kts | 43° |
| 2026-05-07 18:57 | 29.98933 | 31.25099 | 2483 ft | 143 kts | 48° |
| 2026-05-07 18:57 | 29.99599 | 31.26034 | 2491 ft | 151 kts | 49° |
| 2026-05-07 18:57 | 30.00255 | 31.26939 | 2484 ft | 144 kts | 49° |
| 2026-05-07 18:58 | 30.00904 | 31.27815 | 2449 ft | 143 kts | 48° |
| 2026-05-07 18:58 | 30.01551 | 31.28677 | 2513 ft | 146 kts | 48° |
| 2026-05-07 18:58 | 30.02233 | 31.29585 | 2506 ft | 148 kts | 47° |
| 2026-05-07 18:58 | 30.02875 | 31.30437 | 2498 ft | 135 kts | 48° |
| 2026-05-07 18:59 | 30.03463 | 31.31213 | 2474 ft | 123 kts | 49° |
| 2026-05-07 18:59 | 30.04017 | 31.31949 | 2479 ft | 123 kts | 48° |
| 2026-05-07 18:59 | 30.04584 | 31.32700 | 2307 ft | 124 kts | 49° |
| 2026-05-07 18:59 | 30.05144 | 31.33443 | 2118 ft | 120 kts | 47° |
| 2026-05-07 19:00 | 30.05698 | 31.34177 | 1987 ft | 123 kts | 47° |
| 2026-05-07 19:00 | 30.06262 | 31.34924 | 1801 ft | 123 kts | 47° |
| 2026-05-07 19:00 | 30.06806 | 31.35647 | 1650 ft | 119 kts | 47° |
| 2026-05-07 19:00 | 30.07355 | 31.36366 | 1411 ft | 120 kts | 46° |
| 2026-05-07 19:01 | 30.07876 | 31.37018 | 1183 ft | 119 kts | 46° |
| 2026-05-07 19:01 | 30.08427 | 31.37750 | 961 ft | 123 kts | 48° |
| 2026-05-07 19:01 | 30.08976 | 31.38511 | 727 ft | 122 kts | 48° |
| 2026-05-07 19:01 | 30.09523 | 31.39232 | 483 ft | 117 kts | 47° |
| 2026-05-07 19:02 | 30.10063 | 31.39942 | 392 ft | 120 kts | 48° |
| 2026-05-07 19:02 | 30.10565 | 31.40606 | 381 ft | 94 kts | 49° |
| 2026-05-07 19:02 | 30.10907 | 31.41069 | 377 ft | 59 kts | 49° |
| 2026-05-07 19:02 | 30.11099 | 31.41325 | 380 ft | 30 kts | 49° |
| 2026-05-07 19:03 | 30.11244 | 31.41499 | 378 ft | 30 kts | 38° |
| 2026-05-07 19:03 | 30.11386 | 31.41587 | 379 ft | 21 kts | 20° |
| 2026-05-07 19:03 | 30.11430 | 31.41604 | 379 ft | 0 kts | 19° |
| 2026-05-07 19:06 | 30.11430 | 31.41605 | 379 ft | 0 kts | 19° |
| 2026-05-07 19:07 | 30.11449 | 31.41612 | 379 ft | 7 kts | 19° |
| 2026-05-07 19:07 | 30.11526 | 31.41618 | 379 ft | 11 kts | 338° |
| 2026-05-07 19:07 | 30.11531 | 31.41513 | 379 ft | 20 kts | 239° |
| 2026-05-07 19:07 | 30.11423 | 31.41363 | 379 ft | 29 kts | 229° |
| 2026-05-07 19:08 | 30.11306 | 31.41207 | 379 ft | 25 kts | 229° |
| 2026-05-07 19:08 | 30.11192 | 31.41057 | 379 ft | 25 kts | 229° |